Terminal Aerodrome Forecast
Issued by NWS Springfield, MO

Home | Current Version | Previous Version | Text Only | Print | Product List | Glossary On
Versions: 1 2 3 4 5 6 7 8 9 10 11 12 13 14
000
FTUS43 KSGF 021100
TAFSGF
TAF
KSGF 021120Z 0212/0312 00000KT P6SM SCT150
     FM021500 22010KT P6SM SCT200
     FM030100 19003KT P6SM SCT200=

USA.gov is the U.S. government's official web portal to all federal, state and local government web resources and services.